sensor_id;sensor_type;location;lat;lon;timestamp;temperature;humidity
7654;DHT22;3869;48.406;10.774;2024-03-08T00:00:09;2.10;99.90
7654;DHT22;3869;48.406;10.774;2024-03-08T00:02:40;2.00;99.90
7654;DHT22;3869;48.406;10.774;2024-03-08T00:05:09;2.00;99.90
7654;DHT22;3869;48.406;10.774;2024-03-08T00:07:37;1.90;99.90
7654;DHT22;3869;48.406;10.774;2024-03-08T00:10:07;1.80;99.90
7654;DHT22;3869;48.406;10.774;2024-03-08T00:12:38;1.70;99.90
7654;DHT22;3869;48.406;10.774;2024-03-08T00:15:10;1.70;99.90
7654;DHT22;3869;48.406;10.774;2024-03-08T00:17:41;1.60;99.90
7654;DHT22;3869;48.406;10.774;2024-03-08T00:20:09;1.60;99.90
7654;DHT22;3869;48.406;10.774;2024-03-08T00:22:38;1.60;99.90
7654;DHT22;3869;48.406;10.774;2024-03-08T00:25:07;1.70;99.90
7654;DHT22;3869;48.406;10.774;2024-03-08T00:27:36;1.70;99.90
7654;DHT22;3869;48.406;10.774;2024-03-08T00:30:06;1.80;99.90
7654;DHT22;3869;48.406;10.774;2024-03-08T00:32:36;1.90;99.90
7654;DHT22;3869;48.406;10.774;2024-03-08T00:35:05;2.10;99.90
7654;DHT22;3869;48.406;10.774;2024-03-08T00:37:34;2.20;99.90
7654;DHT22;3869;48.406;10.774;2024-03-08T00:40:03;2.10;99.90
7654;DHT22;3869;48.406;10.774;2024-03-08T00:42:31;2.00;99.90
7654;DHT22;3869;48.406;10.774;2024-03-08T00:45:00;1.90;99.90
7654;DHT22;3869;48.406;10.774;2024-03-08T00:47:28;1.80;99.90
7654;DHT22;3869;48.406;10.774;2024-03-08T00:49:58;1.70;99.90
7654;DHT22;3869;48.406;10.774;2024-03-08T00:52:26;1.70;99.90
7654;DHT22;3869;48.406;10.774;2024-03-08T00:54:54;1.60;99.90
7654;DHT22;3869;48.406;10.774;2024-03-08T00:57:22;2.10;99.90
7654;DHT22;3869;48.406;10.774;2024-03-08T00:59:50;1.60;99.90
7654;DHT22;3869;48.406;10.774;2024-03-08T01:02:20;1.70;99.90
7654;DHT22;3869;48.406;10.774;2024-03-08T01:04:49;1.70;99.90
7654;DHT22;3869;48.406;10.774;2024-03-08T01:07:19;1.70;99.90
7654;DHT22;3869;48.406;10.774;2024-03-08T01:09:47;1.80;99.90
7654;DHT22;3869;48.406;10.774;2024-03-08T01:12:15;1.70;99.90
7654;DHT22;3869;48.406;10.774;2024-03-08T01:14:43;1.70;99.90
7654;DHT22;3869;48.406;10.774;2024-03-08T01:17:11;1.60;99.90
7654;DHT22;3869;48.406;10.774;2024-03-08T01:19:39;1.50;99.90
7654;DHT22;3869;48.406;10.774;2024-03-08T01:22:07;1.40;99.90
7654;DHT22;3869;48.406;10.774;2024-03-08T01:24:37;1.40;99.90
7654;DHT22;3869;48.406;10.774;2024-03-08T01:27:05;1.40;99.90
7654;DHT22;3869;48.406;10.774;2024-03-08T01:29:36;1.40;99.90
7654;DHT22;3869;48.406;10.774;2024-03-08T01:32:04;1.50;99.90
7654;DHT22;3869;48.406;10.774;2024-03-08T01:34:33;1.50;99.90
7654;DHT22;3869;48.406;10.774;2024-03-08T01:37:01;1.40;99.90
7654;DHT22;3869;48.406;10.774;2024-03-08T01:39:29;1.30;99.90
7654;DHT22;3869;48.406;10.774;2024-03-08T01:41:58;1.30;99.90
7654;DHT22;3869;48.406;10.774;2024-03-08T01:44:27;1.20;99.90
7654;DHT22;3869;48.406;10.774;2024-03-08T01:46:55;1.20;99.90
7654;DHT22;3869;48.406;10.774;2024-03-08T01:49:24;1.20;99.90
7654;DHT22;3869;48.406;10.774;2024-03-08T01:51:55;1.20;99.90
7654;DHT22;3869;48.406;10.774;2024-03-08T01:54:24;1.20;99.90
7654;DHT22;3869;48.406;10.774;2024-03-08T01:56:52;1.20;99.90
7654;DHT22;3869;48.406;10.774;2024-03-08T01:59:23;1.20;99.90
7654;DHT22;3869;48.406;10.774;2024-03-08T02:01:51;1.20;99.90
7654;DHT22;3869;48.406;10.774;2024-03-08T02:04:19;1.20;99.90
7654;DHT22;3869;48.406;10.774;2024-03-08T02:06:48;1.10;99.90
7654;DHT22;3869;48.406;10.774;2024-03-08T02:09:16;1.10;99.90
7654;DHT22;3869;48.406;10.774;2024-03-08T02:11:45;1.10;99.90
7654;DHT22;3869;48.406;10.774;2024-03-08T02:14:14;1.10;99.90
7654;DHT22;3869;48.406;10.774;2024-03-08T02:16:43;1.10;99.90
7654;DHT22;3869;48.406;10.774;2024-03-08T02:19:11;1.10;99.90
7654;DHT22;3869;48.406;10.774;2024-03-08T02:21:41;1.10;99.90
7654;DHT22;3869;48.406;10.774;2024-03-08T02:24:09;1.10;99.90
7654;DHT22;3869;48.406;10.774;2024-03-08T02:26:37;1.10;99.90
7654;DHT22;3869;48.406;10.774;2024-03-08T02:29:05;1.10;99.90
7654;DHT22;3869;48.406;10.774;2024-03-08T02:31:33;1.10;99.90
7654;DHT22;3869;48.406;10.774;2024-03-08T02:34:01;1.10;99.90
7654;DHT22;3869;48.406;10.774;2024-03-08T02:36:29;1.20;99.90
7654;DHT22;3869;48.406;10.774;2024-03-08T02:39:16;1.20;99.90
7654;DHT22;3869;48.406;10.774;2024-03-08T02:41:46;1.30;99.90
7654;DHT22;3869;48.406;10.774;2024-03-08T02:44:14;1.30;99.90
7654;DHT22;3869;48.406;10.774;2024-03-08T02:46:42;1.40;99.90
7654;DHT22;3869;48.406;10.774;2024-03-08T02:49:10;1.50;99.90
7654;DHT22;3869;48.406;10.774;2024-03-08T02:51:38;1.60;99.90
7654;DHT22;3869;48.406;10.774;2024-03-08T02:54:07;1.70;99.90
7654;DHT22;3869;48.406;10.774;2024-03-08T02:56:38;1.70;99.90
7654;DHT22;3869;48.406;10.774;2024-03-08T02:59:06;1.80;99.90
7654;DHT22;3869;48.406;10.774;2024-03-08T03:01:35;1.80;99.90
7654;DHT22;3869;48.406;10.774;2024-03-08T03:04:03;1.80;99.90
7654;DHT22;3869;48.406;10.774;2024-03-08T03:06:31;1.80;99.90
7654;DHT22;3869;48.406;10.774;2024-03-08T03:09:00;1.80;99.90
7654;DHT22;3869;48.406;10.774;2024-03-08T03:11:28;1.80;99.90
7654;DHT22;3869;48.406;10.774;2024-03-08T03:13:58;1.80;99.90
7654;DHT22;3869;48.406;10.774;2024-03-08T03:16:26;1.80;99.90
7654;DHT22;3869;48.406;10.774;2024-03-08T03:18:54;1.80;99.90
7654;DHT22;3869;48.406;10.774;2024-03-08T03:21:23;1.80;99.90
7654;DHT22;3869;48.406;10.774;2024-03-08T03:23:51;1.80;99.90
7654;DHT22;3869;48.406;10.774;2024-03-08T03:26:19;1.80;99.90
7654;DHT22;3869;48.406;10.774;2024-03-08T03:28:48;1.80;99.90
7654;DHT22;3869;48.406;10.774;2024-03-08T03:31:18;1.90;99.90
7654;DHT22;3869;48.406;10.774;2024-03-08T03:33:45;2.00;99.90
7654;DHT22;3869;48.406;10.774;2024-03-08T03:36:14;2.00;99.90
7654;DHT22;3869;48.406;10.774;2024-03-08T03:38:43;2.00;99.90
7654;DHT22;3869;48.406;10.774;2024-03-08T03:41:11;2.10;99.90
7654;DHT22;3869;48.406;10.774;2024-03-08T03:43:42;2.10;99.90
7654;DHT22;3869;48.406;10.774;2024-03-08T03:46:10;2.10;99.90
7654;DHT22;3869;48.406;10.774;2024-03-08T03:48:39;2.20;99.90
7654;DHT22;3869;48.406;10.774;2024-03-08T03:51:10;2.20;99.90
7654;DHT22;3869;48.406;10.774;2024-03-08T03:53:38;2.30;99.90
7654;DHT22;3869;48.406;10.774;2024-03-08T03:56:06;2.30;99.90
7654;DHT22;3869;48.406;10.774;2024-03-08T03:58:34;2.30;99.90
7654;DHT22;3869;48.406;10.774;2024-03-08T04:01:04;2.30;99.90
7654;DHT22;3869;48.406;10.774;2024-03-08T04:03:32;2.30;99.90
7654;DHT22;3869;48.406;10.774;2024-03-08T04:06:02;2.30;99.90
7654;DHT22;3869;48.406;10.774;2024-03-08T04:08:31;2.20;99.90
7654;DHT22;3869;48.406;10.774;2024-03-08T04:11:01;2.20;99.90
7654;DHT22;3869;48.406;10.774;2024-03-08T04:13:29;2.30;99.90
7654;DHT22;3869;48.406;10.774;2024-03-08T04:15:57;2.30;99.90
7654;DHT22;3869;48.406;10.774;2024-03-08T04:18:25;2.30;99.90
7654;DHT22;3869;48.406;10.774;2024-03-08T04:20:53;2.30;99.90
7654;DHT22;3869;48.406;10.774;2024-03-08T04:23:23;2.30;99.90
7654;DHT22;3869;48.406;10.774;2024-03-08T04:25:51;2.30;99.90
7654;DHT22;3869;48.406;10.774;2024-03-08T04:28:19;2.20;99.90
7654;DHT22;3869;48.406;10.774;2024-03-08T04:30:47;2.30;99.90
7654;DHT22;3869;48.406;10.774;2024-03-08T04:33:15;2.20;99.90
7654;DHT22;3869;48.406;10.774;2024-03-08T04:35:45;2.20;99.90
7654;DHT22;3869;48.406;10.774;2024-03-08T04:38:13;2.20;99.90
7654;DHT22;3869;48.406;10.774;2024-03-08T04:40:43;2.10;99.90
7654;DHT22;3869;48.406;10.774;2024-03-08T04:43:12;2.10;99.90
7654;DHT22;3869;48.406;10.774;2024-03-08T04:45:41;2.00;99.90
7654;DHT22;3869;48.406;10.774;2024-03-08T04:48:10;2.00;99.90
7654;DHT22;3869;48.406;10.774;2024-03-08T04:50:39;2.00;99.90
7654;DHT22;3869;48.406;10.774;2024-03-08T04:53:07;2.00;99.90
7654;DHT22;3869;48.406;10.774;2024-03-08T04:55:35;2.00;99.90
7654;DHT22;3869;48.406;10.774;2024-03-08T04:58:05;2.00;99.90
7654;DHT22;3869;48.406;10.774;2024-03-08T05:00:33;2.10;99.90
7654;DHT22;3869;48.406;10.774;2024-03-08T05:03:02;2.00;99.90
7654;DHT22;3869;48.406;10.774;2024-03-08T05:05:31;2.10;99.90
7654;DHT22;3869;48.406;10.774;2024-03-08T05:08:00;2.10;99.90
7654;DHT22;3869;48.406;10.774;2024-03-08T05:10:29;2.00;99.90
7654;DHT22;3869;48.406;10.774;2024-03-08T05:12:57;2.00;99.90
7654;DHT22;3869;48.406;10.774;2024-03-08T05:15:27;2.00;99.90
7654;DHT22;3869;48.406;10.774;2024-03-08T05:17:55;2.00;99.90
7654;DHT22;3869;48.406;10.774;2024-03-08T05:20:25;2.00;99.90
7654;DHT22;3869;48.406;10.774;2024-03-08T05:22:53;2.10;99.90
7654;DHT22;3869;48.406;10.774;2024-03-08T05:25:21;2.10;99.90
7654;DHT22;3869;48.406;10.774;2024-03-08T05:27:49;2.10;99.90
7654;DHT22;3869;48.406;10.774;2024-03-08T05:30:18;2.10;99.90
7654;DHT22;3869;48.406;10.774;2024-03-08T05:32:50;2.10;99.90
7654;DHT22;3869;48.406;10.774;2024-03-08T05:35:18;2.10;99.90
7654;DHT22;3869;48.406;10.774;2024-03-08T05:37:47;2.10;99.90
7654;DHT22;3869;48.406;10.774;2024-03-08T05:40:15;2.20;99.90
7654;DHT22;3869;48.406;10.774;2024-03-08T05:42:47;2.20;99.90
7654;DHT22;3869;48.406;10.774;2024-03-08T05:45:15;2.00;99.90
7654;DHT22;3869;48.406;10.774;2024-03-08T05:47:43;2.00;99.90
7654;DHT22;3869;48.406;10.774;2024-03-08T05:50:12;1.90;99.90
7654;DHT22;3869;48.406;10.774;2024-03-08T05:52:42;1.90;99.90
7654;DHT22;3869;48.406;10.774;2024-03-08T05:55:10;1.90;99.90
7654;DHT22;3869;48.406;10.774;2024-03-08T05:57:41;1.90;99.90
7654;DHT22;3869;48.406;10.774;2024-03-08T06:00:10;1.90;99.90
7654;DHT22;3869;48.406;10.774;2024-03-08T06:02:38;1.90;99.90
7654;DHT22;3869;48.406;10.774;2024-03-08T06:05:09;1.90;99.90
7654;DHT22;3869;48.406;10.774;2024-03-08T06:07:39;1.90;99.90
7654;DHT22;3869;48.406;10.774;2024-03-08T06:10:09;2.00;99.90
7654;DHT22;3869;48.406;10.774;2024-03-08T06:12:39;2.00;99.90
7654;DHT22;3869;48.406;10.774;2024-03-08T06:15:09;2.00;99.90
7654;DHT22;3869;48.406;10.774;2024-03-08T06:17:41;2.10;99.90
7654;DHT22;3869;48.406;10.774;2024-03-08T06:20:10;2.10;99.90
7654;DHT22;3869;48.406;10.774;2024-03-08T06:22:41;2.10;99.90
7654;DHT22;3869;48.406;10.774;2024-03-08T06:25:09;2.10;99.90
7654;DHT22;3869;48.406;10.774;2024-03-08T06:27:38;2.10;99.90
7654;DHT22;3869;48.406;10.774;2024-03-08T06:30:07;2.10;99.90
7654;DHT22;3869;48.406;10.774;2024-03-08T06:32:36;2.10;99.90
7654;DHT22;3869;48.406;10.774;2024-03-08T06:35:06;2.10;99.90
7654;DHT22;3869;48.406;10.774;2024-03-08T06:37:35;2.00;99.90
7654;DHT22;3869;48.406;10.774;2024-03-08T06:40:05;2.00;99.90
7654;DHT22;3869;48.406;10.774;2024-03-08T06:42:35;2.10;99.90
7654;DHT22;3869;48.406;10.774;2024-03-08T06:45:03;2.10;99.90
7654;DHT22;3869;48.406;10.774;2024-03-08T06:47:32;2.10;99.90
7654;DHT22;3869;48.406;10.774;2024-03-08T06:50:01;2.10;99.90
7654;DHT22;3869;48.406;10.774;2024-03-08T06:52:30;2.20;99.90
7654;DHT22;3869;48.406;10.774;2024-03-08T06:54:59;2.30;99.90
7654;DHT22;3869;48.406;10.774;2024-03-08T06:57:30;2.50;99.90
7654;DHT22;3869;48.406;10.774;2024-03-08T06:59:58;2.50;99.90
7654;DHT22;3869;48.406;10.774;2024-03-08T07:02:26;2.60;99.90
7654;DHT22;3869;48.406;10.774;2024-03-08T07:04:54;2.60;99.90
7654;DHT22;3869;48.406;10.774;2024-03-08T07:07:22;2.60;99.90
7654;DHT22;3869;48.406;10.774;2024-03-08T07:09:51;2.50;99.90
7654;DHT22;3869;48.406;10.774;2024-03-08T07:12:19;2.30;99.90
7654;DHT22;3869;48.406;10.774;2024-03-08T07:14:49;2.30;99.90
7654;DHT22;3869;48.406;10.774;2024-03-08T07:17:17;2.30;99.90
7654;DHT22;3869;48.406;10.774;2024-03-08T07:19:45;2.50;99.90
7654;DHT22;3869;48.406;10.774;2024-03-08T07:22:13;2.40;99.90
7654;DHT22;3869;48.406;10.774;2024-03-08T07:24:41;2.30;99.90
7654;DHT22;3869;48.406;10.774;2024-03-08T07:27:31;2.40;99.90
7654;DHT22;3869;48.406;10.774;2024-03-08T07:30:02;2.40;99.90
7654;DHT22;3869;48.406;10.774;2024-03-08T07:32:34;2.30;99.90
7654;DHT22;3869;48.406;10.774;2024-03-08T07:35:02;2.30;99.90
7654;DHT22;3869;48.406;10.774;2024-03-08T07:37:30;2.40;99.90
7654;DHT22;3869;48.406;10.774;2024-03-08T07:39:59;2.40;99.90
7654;DHT22;3869;48.406;10.774;2024-03-08T07:42:27;2.40;99.90
7654;DHT22;3869;48.406;10.774;2024-03-08T07:44:56;2.40;99.90
7654;DHT22;3869;48.406;10.774;2024-03-08T07:47:25;2.40;99.90
7654;DHT22;3869;48.406;10.774;2024-03-08T07:49:53;2.50;99.90
7654;DHT22;3869;48.406;10.774;2024-03-08T07:52:22;2.50;99.90
7654;DHT22;3869;48.406;10.774;2024-03-08T07:54:50;2.50;99.90
7654;DHT22;3869;48.406;10.774;2024-03-08T07:57:18;2.60;99.90
7654;DHT22;3869;48.406;10.774;2024-03-08T07:59:47;2.70;99.90
7654;DHT22;3869;48.406;10.774;2024-03-08T08:02:16;2.90;99.90
7654;DHT22;3869;48.406;10.774;2024-03-08T08:04:45;2.90;99.90
7654;DHT22;3869;48.406;10.774;2024-03-08T08:07:13;2.90;99.90
7654;DHT22;3869;48.406;10.774;2024-03-08T08:09:41;3.00;99.90
7654;DHT22;3869;48.406;10.774;2024-03-08T08:12:09;3.00;99.90
7654;DHT22;3869;48.406;10.774;2024-03-08T08:14:38;2.90;99.90
7654;DHT22;3869;48.406;10.774;2024-03-08T08:17:08;2.70;99.90
7654;DHT22;3869;48.406;10.774;2024-03-08T08:19:36;2.60;99.90
7654;DHT22;3869;48.406;10.774;2024-03-08T08:22:06;2.60;99.90
7654;DHT22;3869;48.406;10.774;2024-03-08T08:24:35;2.70;99.90
7654;DHT22;3869;48.406;10.774;2024-03-08T08:27:04;2.70;99.90
7654;DHT22;3869;48.406;10.774;2024-03-08T08:29:33;2.70;99.90
7654;DHT22;3869;48.406;10.774;2024-03-08T08:32:02;2.80;99.90
7654;DHT22;3869;48.406;10.774;2024-03-08T08:34:30;2.70;99.90
7654;DHT22;3869;48.406;10.774;2024-03-08T08:36:59;2.60;99.90
7654;DHT22;3869;48.406;10.774;2024-03-08T08:39:28;2.60;99.90
7654;DHT22;3869;48.406;10.774;2024-03-08T08:41:57;2.60;99.90
7654;DHT22;3869;48.406;10.774;2024-03-08T08:44:25;2.70;99.90
7654;DHT22;3869;48.406;10.774;2024-03-08T08:46:54;2.70;99.90
7654;DHT22;3869;48.406;10.774;2024-03-08T08:49:31;2.70;99.90
7654;DHT22;3869;48.406;10.774;2024-03-08T08:52:00;2.80;99.90
7654;DHT22;3869;48.406;10.774;2024-03-08T08:54:42;2.80;99.90
7654;DHT22;3869;48.406;10.774;2024-03-08T08:57:15;2.80;99.90
7654;DHT22;3869;48.406;10.774;2024-03-08T08:59:43;2.80;99.90
7654;DHT22;3869;48.406;10.774;2024-03-08T09:02:12;2.90;99.90
7654;DHT22;3869;48.406;10.774;2024-03-08T09:04:44;2.90;99.90
7654;DHT22;3869;48.406;10.774;2024-03-08T09:07:13;2.90;99.90
7654;DHT22;3869;48.406;10.774;2024-03-08T09:09:43;3.00;99.90
7654;DHT22;3869;48.406;10.774;2024-03-08T09:12:11;3.10;99.90
7654;DHT22;3869;48.406;10.774;2024-03-08T09:14:40;3.00;99.90
7654;DHT22;3869;48.406;10.774;2024-03-08T09:17:08;3.10;99.90
7654;DHT22;3869;48.406;10.774;2024-03-08T09:19:36;3.20;99.90
7654;DHT22;3869;48.406;10.774;2024-03-08T09:22:04;3.10;99.90
7654;DHT22;3869;48.406;10.774;2024-03-08T09:24:32;3.20;99.90
7654;DHT22;3869;48.406;10.774;2024-03-08T09:27:02;3.30;99.90
7654;DHT22;3869;48.406;10.774;2024-03-08T09:29:30;3.60;99.90
7654;DHT22;3869;48.406;10.774;2024-03-08T09:31:58;3.50;99.90
7654;DHT22;3869;48.406;10.774;2024-03-08T09:34:26;3.60;99.90
7654;DHT22;3869;48.406;10.774;2024-03-08T09:37:03;3.50;99.90
7654;DHT22;3869;48.406;10.774;2024-03-08T09:39:32;3.60;99.90
7654;DHT22;3869;48.406;10.774;2024-03-08T09:42:02;3.70;99.90
7654;DHT22;3869;48.406;10.774;2024-03-08T09:44:30;3.70;99.90
7654;DHT22;3869;48.406;10.774;2024-03-08T09:46:59;3.70;99.90
7654;DHT22;3869;48.406;10.774;2024-03-08T09:49:29;3.40;99.90
7654;DHT22;3869;48.406;10.774;2024-03-08T09:51:57;3.40;99.90
7654;DHT22;3869;48.406;10.774;2024-03-08T09:54:25;3.50;99.90
7654;DHT22;3869;48.406;10.774;2024-03-08T09:56:54;3.50;99.90
7654;DHT22;3869;48.406;10.774;2024-03-08T09:59:24;4.00;99.90
7654;DHT22;3869;48.406;10.774;2024-03-08T10:02:16;3.70;99.90
7654;DHT22;3869;48.406;10.774;2024-03-08T10:04:45;3.70;99.90
7654;DHT22;3869;48.406;10.774;2024-03-08T10:07:14;3.80;99.90
7654;DHT22;3869;48.406;10.774;2024-03-08T10:09:42;3.80;99.90
7654;DHT22;3869;48.406;10.774;2024-03-08T10:12:16;3.70;99.90
7654;DHT22;3869;48.406;10.774;2024-03-08T10:14:48;3.80;99.90
7654;DHT22;3869;48.406;10.774;2024-03-08T10:17:16;3.90;99.90
7654;DHT22;3869;48.406;10.774;2024-03-08T10:19:50;4.10;99.90
7654;DHT22;3869;48.406;10.774;2024-03-08T10:22:20;4.20;99.90
7654;DHT22;3869;48.406;10.774;2024-03-08T10:24:48;4.30;99.90
7654;DHT22;3869;48.406;10.774;2024-03-08T10:27:17;4.40;99.90
7654;DHT22;3869;48.406;10.774;2024-03-08T10:29:48;4.50;99.90
7654;DHT22;3869;48.406;10.774;2024-03-08T10:32:18;4.60;99.90
7654;DHT22;3869;48.406;10.774;2024-03-08T10:34:47;4.70;99.90
7654;DHT22;3869;48.406;10.774;2024-03-08T10:37:21;4.70;99.90
7654;DHT22;3869;48.406;10.774;2024-03-08T10:40:00;4.70;99.90
7654;DHT22;3869;48.406;10.774;2024-03-08T10:42:40;4.60;99.90
7654;DHT22;3869;48.406;10.774;2024-03-08T10:45:14;4.40;99.90
7654;DHT22;3869;48.406;10.774;2024-03-08T10:47:45;4.20;99.90
7654;DHT22;3869;48.406;10.774;2024-03-08T10:50:18;4.10;99.90
7654;DHT22;3869;48.406;10.774;2024-03-08T10:52:49;4.20;99.90
7654;DHT22;3869;48.406;10.774;2024-03-08T10:55:18;4.20;99.90
7654;DHT22;3869;48.406;10.774;2024-03-08T10:57:47;4.30;99.90
7654;DHT22;3869;48.406;10.774;2024-03-08T11:00:17;4.30;99.90
7654;DHT22;3869;48.406;10.774;2024-03-08T11:02:53;4.30;99.90
7654;DHT22;3869;48.406;10.774;2024-03-08T11:05:32;4.40;99.90
7654;DHT22;3869;48.406;10.774;2024-03-08T11:08:17;4.50;99.90
7654;DHT22;3869;48.406;10.774;2024-03-08T11:10:47;4.50;99.90
7654;DHT22;3869;48.406;10.774;2024-03-08T11:13:32;4.60;99.90
7654;DHT22;3869;48.406;10.774;2024-03-08T11:16:02;4.70;99.90
7654;DHT22;3869;48.406;10.774;2024-03-08T11:18:32;4.80;99.90
7654;DHT22;3869;48.406;10.774;2024-03-08T11:21:02;5.00;99.90
7654;DHT22;3869;48.406;10.774;2024-03-08T11:23:33;5.10;99.90
7654;DHT22;3869;48.406;10.774;2024-03-08T11:26:02;5.30;99.90
7654;DHT22;3869;48.406;10.774;2024-03-08T11:28:34;5.40;99.90
7654;DHT22;3869;48.406;10.774;2024-03-08T11:33:49;5.50;99.90
7654;DHT22;3869;48.406;10.774;2024-03-08T11:36:20;5.60;99.90
7654;DHT22;3869;48.406;10.774;2024-03-08T11:38:48;5.60;99.90
7654;DHT22;3869;48.406;10.774;2024-03-08T11:41:18;5.60;99.90
7654;DHT22;3869;48.406;10.774;2024-03-08T11:43:46;5.70;99.90
7654;DHT22;3869;48.406;10.774;2024-03-08T11:46:15;5.70;99.90
7654;DHT22;3869;48.406;10.774;2024-03-08T11:48:46;5.80;99.90
7654;DHT22;3869;48.406;10.774;2024-03-08T11:51:16;5.90;99.90
7654;DHT22;3869;48.406;10.774;2024-03-08T11:53:45;5.90;99.90
7654;DHT22;3869;48.406;10.774;2024-03-08T11:56:14;6.00;99.90
7654;DHT22;3869;48.406;10.774;2024-03-08T11:58:51;6.00;99.90
7654;DHT22;3869;48.406;10.774;2024-03-08T12:01:20;6.10;99.90
7654;DHT22;3869;48.406;10.774;2024-03-08T12:03:52;6.20;99.90
7654;DHT22;3869;48.406;10.774;2024-03-08T12:06:22;6.30;99.90
7654;DHT22;3869;48.406;10.774;2024-03-08T12:08:49;6.30;99.90
7654;DHT22;3869;48.406;10.774;2024-03-08T12:11:17;6.40;99.90
7654;DHT22;3869;48.406;10.774;2024-03-08T12:13:49;6.40;99.90
7654;DHT22;3869;48.406;10.774;2024-03-08T12:16:18;6.50;99.90
7654;DHT22;3869;48.406;10.774;2024-03-08T12:18:48;6.50;99.90
7654;DHT22;3869;48.406;10.774;2024-03-08T12:21:16;6.60;99.90
7654;DHT22;3869;48.406;10.774;2024-03-08T12:24:02;6.70;99.90
7654;DHT22;3869;48.406;10.774;2024-03-08T12:26:31;6.90;99.90
7654;DHT22;3869;48.406;10.774;2024-03-08T12:29:15;6.90;99.90
7654;DHT22;3869;48.406;10.774;2024-03-08T12:31:45;6.90;99.90
7654;DHT22;3869;48.406;10.774;2024-03-08T12:34:13;7.00;99.90
7654;DHT22;3869;48.406;10.774;2024-03-08T12:36:46;7.00;99.90
7654;DHT22;3869;48.406;10.774;2024-03-08T12:39:20;7.00;99.90
7654;DHT22;3869;48.406;10.774;2024-03-08T12:41:54;7.10;99.90
7654;DHT22;3869;48.406;10.774;2024-03-08T12:44:24;7.00;99.90
7654;DHT22;3869;48.406;10.774;2024-03-08T12:46:52;7.10;99.90
7654;DHT22;3869;48.406;10.774;2024-03-08T12:49:21;7.20;99.90
7654;DHT22;3869;48.406;10.774;2024-03-08T12:51:50;7.30;99.90
7654;DHT22;3869;48.406;10.774;2024-03-08T12:54:21;7.40;99.90
7654;DHT22;3869;48.406;10.774;2024-03-08T12:56:51;7.50;99.90
7654;DHT22;3869;48.406;10.774;2024-03-08T12:59:21;7.60;99.90
7654;DHT22;3869;48.406;10.774;2024-03-08T13:01:50;7.60;99.90
7654;DHT22;3869;48.406;10.774;2024-03-08T13:04:20;7.70;99.90
7654;DHT22;3869;48.406;10.774;2024-03-08T13:06:49;7.70;99.90
7654;DHT22;3869;48.406;10.774;2024-03-08T13:09:22;7.80;99.90
7654;DHT22;3869;48.406;10.774;2024-03-08T13:11:54;7.90;99.90
7654;DHT22;3869;48.406;10.774;2024-03-08T13:14:25;7.90;99.90
7654;DHT22;3869;48.406;10.774;2024-03-08T13:16:53;8.00;99.90
7654;DHT22;3869;48.406;10.774;2024-03-08T13:19:21;8.00;99.90
7654;DHT22;3869;48.406;10.774;2024-03-08T13:21:49;8.10;99.90
7654;DHT22;3869;48.406;10.774;2024-03-08T13:24:17;8.10;99.90
7654;DHT22;3869;48.406;10.774;2024-03-08T13:26:48;8.20;99.90
7654;DHT22;3869;48.406;10.774;2024-03-08T13:29:17;8.20;99.90
7654;DHT22;3869;48.406;10.774;2024-03-08T13:31:45;8.10;99.90
7654;DHT22;3869;48.406;10.774;2024-03-08T13:34:16;8.10;99.90
7654;DHT22;3869;48.406;10.774;2024-03-08T13:36:44;8.20;99.90
7654;DHT22;3869;48.406;10.774;2024-03-08T13:39:13;8.20;99.90
7654;DHT22;3869;48.406;10.774;2024-03-08T13:41:42;8.20;99.90
7654;DHT22;3869;48.406;10.774;2024-03-08T13:44:13;8.20;99.90
7654;DHT22;3869;48.406;10.774;2024-03-08T13:46:40;8.10;99.90
7654;DHT22;3869;48.406;10.774;2024-03-08T13:49:09;8.10;99.90
7654;DHT22;3869;48.406;10.774;2024-03-08T13:51:37;8.20;99.90
7654;DHT22;3869;48.406;10.774;2024-03-08T13:54:06;8.20;99.90
7654;DHT22;3869;48.406;10.774;2024-03-08T13:56:34;8.20;99.90
7654;DHT22;3869;48.406;10.774;2024-03-08T13:59:03;8.30;99.90
7654;DHT22;3869;48.406;10.774;2024-03-08T14:01:33;8.40;99.90
7654;DHT22;3869;48.406;10.774;2024-03-08T14:04:02;8.40;99.90
7654;DHT22;3869;48.406;10.774;2024-03-08T14:06:31;8.30;99.90
7654;DHT22;3869;48.406;10.774;2024-03-08T14:08:59;8.40;99.90
7654;DHT22;3869;48.406;10.774;2024-03-08T14:11:27;8.40;99.90
7654;DHT22;3869;48.406;10.774;2024-03-08T14:13:55;8.40;99.90
7654;DHT22;3869;48.406;10.774;2024-03-08T14:16:24;8.40;99.90
7654;DHT22;3869;48.406;10.774;2024-03-08T14:18:54;8.50;99.90
7654;DHT22;3869;48.406;10.774;2024-03-08T14:21:22;8.50;99.90
7654;DHT22;3869;48.406;10.774;2024-03-08T14:23:50;8.50;99.90
7654;DHT22;3869;48.406;10.774;2024-03-08T14:26:19;8.40;99.90
7654;DHT22;3869;48.406;10.774;2024-03-08T14:28:48;8.40;99.90
7654;DHT22;3869;48.406;10.774;2024-03-08T14:31:18;8.50;99.90
7654;DHT22;3869;48.406;10.774;2024-03-08T14:33:46;8.50;99.90
7654;DHT22;3869;48.406;10.774;2024-03-08T14:36:17;8.60;99.90
7654;DHT22;3869;48.406;10.774;2024-03-08T14:38:46;8.60;99.90
7654;DHT22;3869;48.406;10.774;2024-03-08T14:41:14;8.60;99.90
7654;DHT22;3869;48.406;10.774;2024-03-08T14:43:43;8.60;99.90
7654;DHT22;3869;48.406;10.774;2024-03-08T14:46:12;8.60;99.90
7654;DHT22;3869;48.406;10.774;2024-03-08T14:48:44;8.50;99.90
7654;DHT22;3869;48.406;10.774;2024-03-08T14:51:18;8.50;99.90
7654;DHT22;3869;48.406;10.774;2024-03-08T14:53:48;8.60;99.90
7654;DHT22;3869;48.406;10.774;2024-03-08T14:56:16;8.50;99.90
7654;DHT22;3869;48.406;10.774;2024-03-08T14:58:45;8.50;99.90
7654;DHT22;3869;48.406;10.774;2024-03-08T15:01:13;8.50;99.90
7654;DHT22;3869;48.406;10.774;2024-03-08T15:03:41;8.50;99.90
7654;DHT22;3869;48.406;10.774;2024-03-08T15:06:10;8.50;99.90
7654;DHT22;3869;48.406;10.774;2024-03-08T15:08:40;8.50;99.90
7654;DHT22;3869;48.406;10.774;2024-03-08T15:11:08;8.50;99.90
7654;DHT22;3869;48.406;10.774;2024-03-08T15:13:37;8.60;99.90
7654;DHT22;3869;48.406;10.774;2024-03-08T15:16:09;8.60;99.90
7654;DHT22;3869;48.406;10.774;2024-03-08T15:18:42;8.60;99.90
7654;DHT22;3869;48.406;10.774;2024-03-08T15:21:18;8.60;99.90
7654;DHT22;3869;48.406;10.774;2024-03-08T15:23:47;8.50;99.90
7654;DHT22;3869;48.406;10.774;2024-03-08T15:26:19;8.50;99.90
7654;DHT22;3869;48.406;10.774;2024-03-08T15:28:47;8.40;99.90
7654;DHT22;3869;48.406;10.774;2024-03-08T15:31:18;8.50;99.90
7654;DHT22;3869;48.406;10.774;2024-03-08T15:33:48;8.40;99.90
7654;DHT22;3869;48.406;10.774;2024-03-08T15:36:18;8.40;99.90
7654;DHT22;3869;48.406;10.774;2024-03-08T15:38:49;8.40;99.90
7654;DHT22;3869;48.406;10.774;2024-03-08T15:41:19;8.40;99.90
7654;DHT22;3869;48.406;10.774;2024-03-08T15:43:48;8.40;99.90
7654;DHT22;3869;48.406;10.774;2024-03-08T15:46:17;8.30;99.90
7654;DHT22;3869;48.406;10.774;2024-03-08T15:48:49;8.20;99.90
7654;DHT22;3869;48.406;10.774;2024-03-08T15:51:18;8.20;99.90
7654;DHT22;3869;48.406;10.774;2024-03-08T15:53:46;8.10;99.90
7654;DHT22;3869;48.406;10.774;2024-03-08T15:56:21;8.10;99.90
7654;DHT22;3869;48.406;10.774;2024-03-08T15:58:49;8.00;99.90
7654;DHT22;3869;48.406;10.774;2024-03-08T16:01:18;8.00;99.90
7654;DHT22;3869;48.406;10.774;2024-03-08T16:03:47;7.90;99.90
7654;DHT22;3869;48.406;10.774;2024-03-08T16:06:17;7.80;99.90
7654;DHT22;3869;48.406;10.774;2024-03-08T16:08:48;7.80;99.90
7654;DHT22;3869;48.406;10.774;2024-03-08T16:11:17;7.80;99.90
7654;DHT22;3869;48.406;10.774;2024-03-08T16:13:47;7.70;99.90
7654;DHT22;3869;48.406;10.774;2024-03-08T16:16:16;7.70;99.90
7654;DHT22;3869;48.406;10.774;2024-03-08T16:18:44;7.60;99.90